createdAt,value
2019-03-09T00:01:04.966Z,11.10
2019-03-09T00:03:33.682Z,15.20
2019-03-09T00:06:02.430Z,11.30
2019-03-09T00:08:31.083Z,13.57
2019-03-09T00:10:59.744Z,12.90
2019-03-09T00:13:28.406Z,10.57
2019-03-09T00:15:57.170Z,7.97
2019-03-09T00:18:25.978Z,12.97
2019-03-09T00:20:54.892Z,6.40
2019-03-09T00:23:40.567Z,9.77
2019-03-09T00:26:11.026Z,12.20
2019-03-09T00:28:41.452Z,11.57
2019-03-09T00:31:11.809Z,9.80
2019-03-09T00:33:41.729Z,14.57
2019-03-09T00:36:10.629Z,11.67
2019-03-09T00:38:39.406Z,13.87
2019-03-09T00:41:08.164Z,10.33
2019-03-09T00:43:36.816Z,12.07
2019-03-09T00:46:05.627Z,12.50
2019-03-09T00:48:34.514Z,10.77
2019-03-09T00:51:03.228Z,11.73
2019-03-09T00:53:32.178Z,12.33
2019-03-09T00:56:00.782Z,9.47
2019-03-09T00:58:29.508Z,6.97
2019-03-09T01:00:58.366Z,10.27
2019-03-09T01:03:26.898Z,9.13
2019-03-09T01:05:55.660Z,9.20
2019-03-09T01:08:24.444Z,14.63
2019-03-09T01:10:53.202Z,6.00
2019-03-09T01:13:21.996Z,10.23
2019-03-09T01:15:50.769Z,7.23
2019-03-09T01:18:19.474Z,7.63
2019-03-09T01:20:48.325Z,5.30
2019-03-09T01:23:17.152Z,7.47
2019-03-09T01:25:45.850Z,6.40
2019-03-09T01:28:14.861Z,8.93
2019-03-09T01:30:45.192Z,6.17
2019-03-09T01:33:13.928Z,8.00
2019-03-09T01:35:42.764Z,6.80
2019-03-09T01:38:11.531Z,6.87
2019-03-09T01:40:42.053Z,8.37
2019-03-09T01:43:10.798Z,7.47
2019-03-09T01:45:39.754Z,6.43
2019-03-09T01:48:08.681Z,7.70
2019-03-09T01:50:37.432Z,7.13
2019-03-09T01:53:06.371Z,8.63
2019-03-09T01:55:35.321Z,7.73
2019-03-09T01:58:04.136Z,7.70
2019-03-09T02:00:33.160Z,7.30
2019-03-09T02:03:34.544Z,8.30
2019-03-09T02:06:03.507Z,9.03
2019-03-09T02:08:52.944Z,8.07
2019-03-09T02:11:24.256Z,8.20
2019-03-09T02:13:54.744Z,7.57
2019-03-09T02:16:47.138Z,6.83
2019-03-09T02:19:20.548Z,6.83
2019-03-09T02:21:49.390Z,5.90
2019-03-09T02:24:28.335Z,6.17
2019-03-09T02:26:54.830Z,7.37
2019-03-09T02:29:23.801Z,4.30
2019-03-09T02:31:52.667Z,7.63
2019-03-09T02:34:28.347Z,5.27
2019-03-09T02:36:57.230Z,4.30
2019-03-09T02:39:55.941Z,6.00
2019-03-09T02:42:37.225Z,7.30
2019-03-09T02:48:01.068Z,7.30
2019-03-09T02:56:32.666Z,9.00
2019-03-09T02:59:01.459Z,4.70
2019-03-09T03:01:31.861Z,7.83
2019-03-09T03:04:02.331Z,11.73
2019-03-09T03:06:31.286Z,10.37
2019-03-09T03:09:07.289Z,8.00
2019-03-09T03:11:41.127Z,12.00
2019-03-09T03:14:10.130Z,6.77
2019-03-09T03:16:50.261Z,8.83
2019-03-09T03:19:29.096Z,14.83
2019-03-09T03:22:01.723Z,13.70
2019-03-09T03:24:39.928Z,10.83
2019-03-09T03:27:08.889Z,12.67
2019-03-09T03:29:39.419Z,14.33
2019-03-09T03:32:12.346Z,14.10
2019-03-09T03:34:43.057Z,14.90
2019-03-09T03:37:11.985Z,19.47
2019-03-09T03:39:42.476Z,17.23
2019-03-09T03:42:11.489Z,22.70
2019-03-09T03:44:55.268Z,22.60
2019-03-09T03:47:24.048Z,15.97
2019-03-09T03:49:52.858Z,18.53
2019-03-09T03:52:21.752Z,18.40
2019-03-09T03:54:50.675Z,16.07
2019-03-09T03:57:25.290Z,19.27
2019-03-09T04:00:00.597Z,24.60
2019-03-09T04:02:29.755Z,22.27
2019-03-09T04:05:20.050Z,17.30
2019-03-09T04:07:45.023Z,21.10
2019-03-09T04:10:15.398Z,16.17
2019-03-09T04:12:44.408Z,17.57
2019-03-09T04:15:15.044Z,18.37
2019-03-09T04:17:46.948Z,24.50
2019-03-09T04:20:15.749Z,16.93
2019-03-09T04:22:44.627Z,17.97
2019-03-09T04:25:17.694Z,19.70
2019-03-09T04:27:46.573Z,16.97
2019-03-09T04:30:15.303Z,16.70
2019-03-09T04:32:50.581Z,18.13
2019-03-09T04:36:06.198Z,18.07
2019-03-09T04:38:38.087Z,24.77
2019-03-09T04:41:06.933Z,14.23
2019-03-09T04:43:35.655Z,18.27
2019-03-09T04:46:07.265Z,31.90
2019-03-09T04:48:35.850Z,24.80
2019-03-09T04:51:04.794Z,20.53
2019-03-09T04:53:33.507Z,19.33
2019-03-09T04:56:02.527Z,18.90
2019-03-09T04:58:33.000Z,19.87
2019-03-09T05:01:01.717Z,18.23
2019-03-09T05:03:30.471Z,19.70
2019-03-09T05:05:59.313Z,17.27
2019-03-09T05:08:36.599Z,19.43
2019-03-09T05:11:07.775Z,16.53
2019-03-09T05:13:39.297Z,23.70
2019-03-09T05:16:07.956Z,17.50
2019-03-09T05:18:36.691Z,23.87
2019-03-09T05:21:05.620Z,21.23
2019-03-09T05:23:34.642Z,22.40
2019-03-09T05:26:06.335Z,22.87
2019-03-09T05:28:37.197Z,21.03
2019-03-09T05:31:05.994Z,24.03
2019-03-09T05:33:34.733Z,16.50
2019-03-09T05:36:03.751Z,21.90
2019-03-09T05:38:32.603Z,18.90
2019-03-09T05:41:04.325Z,16.50
2019-03-09T05:43:54.734Z,25.27
2019-03-09T05:46:23.663Z,17.43
2019-03-09T05:48:56.647Z,22.23
2019-03-09T05:51:25.233Z,20.73
2019-03-09T05:53:53.964Z,17.50
2019-03-09T05:56:22.689Z,25.17
2019-03-09T05:58:51.855Z,26.00
2019-03-09T06:01:20.655Z,16.67
2019-03-09T06:03:49.565Z,21.97
2019-03-09T06:06:18.272Z,18.07
2019-03-09T06:08:46.990Z,23.10
2019-03-09T06:11:15.677Z,16.43
2019-03-09T06:13:44.329Z,14.50
2019-03-09T06:16:12.981Z,19.17
2019-03-09T06:18:41.659Z,17.43
2019-03-09T06:21:11.745Z,26.70
2019-03-09T06:23:40.327Z,11.47
2019-03-09T06:26:09.043Z,17.63
2019-03-09T06:28:37.641Z,24.30
2019-03-09T06:31:06.283Z,21.67
2019-03-09T06:33:34.935Z,20.87
2019-03-09T06:39:04.396Z,25.70
2019-03-09T06:41:41.675Z,16.60
2019-03-09T06:44:10.284Z,25.77
2019-03-09T06:46:38.877Z,23.13
2019-03-09T06:49:09.305Z,24.80
2019-03-09T06:51:38.103Z,26.47
2019-03-09T06:54:06.825Z,22.53
2019-03-09T06:56:35.569Z,18.03
2019-03-09T06:59:04.740Z,20.57
2019-03-09T07:01:33.669Z,21.50
2019-03-09T07:04:02.943Z,26.53
2019-03-09T07:06:31.735Z,21.53
2019-03-09T07:09:00.313Z,30.93
2019-03-09T07:11:29.739Z,22.73
2019-03-09T07:14:01.459Z,20.30
2019-03-09T07:16:30.367Z,25.33
2019-03-09T07:18:58.897Z,19.27
2019-03-09T07:21:27.588Z,25.17
2019-03-09T07:23:56.379Z,25.63
2019-03-09T07:26:25.154Z,27.30
2019-03-09T07:28:53.883Z,31.13
2019-03-09T07:31:22.504Z,29.53
2019-03-09T07:33:54.223Z,30.67
2019-03-09T07:36:22.956Z,24.87
2019-03-09T07:38:51.625Z,27.63
2019-03-09T07:41:20.265Z,37.77
2019-03-09T07:43:49.262Z,32.47
2019-03-09T07:46:18.015Z,27.93
2019-03-09T07:48:46.704Z,34.20
2019-03-09T07:51:15.434Z,28.57
2019-03-09T07:53:44.032Z,25.33
2019-03-09T07:56:12.646Z,30.10
2019-03-09T07:58:41.280Z,36.27
2019-03-09T08:01:09.998Z,25.13
2019-03-09T08:03:38.700Z,30.87
2019-03-09T08:06:07.292Z,34.37
2019-03-09T08:08:35.847Z,26.67
2019-03-09T08:11:04.497Z,33.13
2019-03-09T08:13:33.189Z,35.17
2019-03-09T08:16:04.915Z,27.53
2019-03-09T08:18:33.624Z,39.27
2019-03-09T08:21:02.441Z,36.67
2019-03-09T08:23:31.205Z,31.40
2019-03-09T08:26:00.087Z,33.57
2019-03-09T08:28:28.792Z,32.03
2019-03-09T08:30:57.499Z,41.67
2019-03-09T08:33:26.230Z,37.47
2019-03-09T08:35:55.027Z,35.50
2019-03-09T08:38:23.750Z,34.60
2019-03-09T08:40:52.461Z,37.73
2019-03-09T08:43:21.201Z,35.50
2019-03-09T08:45:49.986Z,36.43
2019-03-09T08:48:18.745Z,42.87
2019-03-09T08:50:47.394Z,36.17
2019-03-09T08:53:16.087Z,32.67
2019-03-09T08:55:44.773Z,49.00
2019-03-09T08:58:13.510Z,35.90
2019-03-09T09:00:42.376Z,38.77
2019-03-09T09:03:10.913Z,36.57
2019-03-09T09:05:39.903Z,37.73
2019-03-09T09:08:08.709Z,49.47
2019-03-09T09:10:37.386Z,43.87
2019-03-09T09:13:06.145Z,43.87
2019-03-09T09:15:34.785Z,41.23
2019-03-09T09:18:03.513Z,43.00
2019-03-09T09:20:32.397Z,40.20
2019-03-09T09:23:01.146Z,43.23
2019-03-09T09:25:30.151Z,46.90
2019-03-09T09:27:58.798Z,50.40
2019-03-09T09:30:29.652Z,38.17
2019-03-09T09:32:58.767Z,43.87
2019-03-09T09:35:27.680Z,37.17
2019-03-09T09:37:56.357Z,40.07
2019-03-09T09:40:28.447Z,49.07
2019-03-09T09:42:57.285Z,44.73
2019-03-09T09:45:26.037Z,42.97
2019-03-09T09:47:58.934Z,42.67
2019-03-09T09:50:27.523Z,46.03
2019-03-09T09:52:56.218Z,52.70
2019-03-09T09:55:27.182Z,45.73
2019-03-09T09:57:55.900Z,46.53
2019-03-09T10:00:32.762Z,57.90
2019-03-09T10:03:01.370Z,48.77
2019-03-09T10:05:29.943Z,44.13
2019-03-09T10:07:58.576Z,46.57
2019-03-09T10:10:29.671Z,51.37
2019-03-09T10:12:57.846Z,39.30
2019-03-09T10:15:29.036Z,44.90
2019-03-09T10:17:57.839Z,39.17
2019-03-09T10:20:26.686Z,52.37
2019-03-09T10:23:03.782Z,41.77
2019-03-09T10:25:25.670Z,44.83
2019-03-09T10:27:54.402Z,44.03
2019-03-09T10:30:36.628Z,48.03
2019-03-09T10:33:05.327Z,42.93
2019-03-09T10:35:34.080Z,49.83
2019-03-09T10:38:05.731Z,55.83
2019-03-09T10:40:33.634Z,52.87
2019-03-09T10:43:02.287Z,45.27
2019-03-09T10:45:33.056Z,49.47
2019-03-09T10:48:01.818Z,57.83
2019-03-09T10:50:30.932Z,48.90
2019-03-09T10:56:11.636Z,55.03
2019-03-09T10:58:41.822Z,51.47
2019-03-09T11:01:10.694Z,56.33
2019-03-09T11:03:39.792Z,50.47
2019-03-09T11:06:21.765Z,54.20
2019-03-09T11:09:11.999Z,51.67
2019-03-09T11:11:46.140Z,47.70
2019-03-09T11:14:14.706Z,45.73
2019-03-09T11:16:43.270Z,49.97
2019-03-09T11:19:11.896Z,53.23
2019-03-09T11:21:40.490Z,51.57
2019-03-09T11:24:09.096Z,52.60
2019-03-09T11:26:37.696Z,50.50
2019-03-09T11:29:06.448Z,67.70
2019-03-09T11:31:35.054Z,47.43
2019-03-09T11:34:03.770Z,56.40
2019-03-09T11:36:32.492Z,54.43
2019-03-09T11:39:01.206Z,62.17
2019-03-09T11:41:30.114Z,51.47
2019-03-09T11:43:58.737Z,59.30
2019-03-09T11:46:27.326Z,54.07
2019-03-09T11:48:55.920Z,60.57
2019-03-09T11:51:24.495Z,60.60
2019-03-09T11:53:53.049Z,46.07
2019-03-09T11:56:21.790Z,49.33
2019-03-09T11:58:50.438Z,42.20
2019-03-09T12:01:19.046Z,42.40
2019-03-09T12:03:47.628Z,46.60
2019-03-09T12:06:16.203Z,43.37
2019-03-09T12:08:44.760Z,33.50
2019-03-09T12:11:13.377Z,35.30
2019-03-09T12:13:41.994Z,34.93
2019-03-09T12:16:10.763Z,27.87
2019-03-09T12:18:39.483Z,32.33
2019-03-09T12:21:08.308Z,37.33
2019-03-09T12:23:36.926Z,39.93
2019-03-09T12:26:06.168Z,35.90
2019-03-09T12:28:34.738Z,35.73
2019-03-09T12:31:04.680Z,42.67
2019-03-09T12:33:49.577Z,41.20
2019-03-09T12:36:52.770Z,39.77
2019-03-09T12:39:27.653Z,36.60
2019-03-09T12:42:34.574Z,49.50
2019-03-09T12:45:03.833Z,39.57
2019-03-09T12:47:35.880Z,42.83
2019-03-09T12:56:06.119Z,27.40
2019-03-09T12:58:59.479Z,35.17
2019-03-09T13:27:20.004Z,35.83
2019-03-09T13:29:51.426Z,31.20
2019-03-09T13:32:21.862Z,38.37
2019-03-09T13:35:19.339Z,38.20
2019-03-09T13:37:48.115Z,35.47
2019-03-09T13:43:23.769Z,35.87
2019-03-09T13:45:52.425Z,24.90
2019-03-09T13:48:22.462Z,28.70
2019-03-09T13:50:52.985Z,30.27
2019-03-09T13:53:26.135Z,35.00
2019-03-09T13:59:11.381Z,36.13
2019-03-09T14:01:37.891Z,39.37
2019-03-09T14:07:15.064Z,45.57
2019-03-09T14:10:07.210Z,42.73
2019-03-09T14:28:40.564Z,49.00
2019-03-09T14:34:48.346Z,38.53
2019-03-09T14:40:31.776Z,45.77
2019-03-09T14:43:01.563Z,43.90
2019-03-09T15:58:27.035Z,47.97
2019-03-09T16:00:45.594Z,43.40
2019-03-09T16:03:14.547Z,50.77
2019-03-09T16:18:34.898Z,50.90
2019-03-09T16:20:59.982Z,53.37
2019-03-09T16:26:27.846Z,45.57
2019-03-09T16:29:08.340Z,49.53
2019-03-09T16:31:39.240Z,42.83
2019-03-09T16:34:25.026Z,45.33
2019-03-09T16:37:01.417Z,48.53
2019-03-09T16:39:37.618Z,47.77
2019-03-09T16:42:21.900Z,42.77
2019-03-09T16:44:55.206Z,63.23
2019-03-09T16:47:25.898Z,55.93
2019-03-09T16:49:56.835Z,38.07
2019-03-09T16:52:29.316Z,47.00
2019-03-09T16:55:04.067Z,43.27
2019-03-09T17:31:06.229Z,57.93
2019-03-09T17:33:37.616Z,44.90
2019-03-09T17:36:06.527Z,49.37
2019-03-09T17:38:35.289Z,43.13
2019-03-09T17:41:04.346Z,39.97
2019-03-09T17:43:33.310Z,43.77
2019-03-09T17:46:05.530Z,57.03
2019-03-09T17:48:34.617Z,53.23
2019-03-09T17:51:03.375Z,46.33
2019-03-09T17:53:32.298Z,41.73
2019-03-09T17:56:01.180Z,41.80
2019-03-09T17:58:30.244Z,47.03
2019-03-09T18:00:59.282Z,43.03
2019-03-09T18:03:28.307Z,54.40
2019-03-09T18:05:57.227Z,44.00
2019-03-09T18:08:33.199Z,49.90
2019-03-09T18:11:08.224Z,42.07
2019-03-09T18:13:36.913Z,52.20
2019-03-09T18:16:05.762Z,35.67
2019-03-09T18:18:34.445Z,48.33
2019-03-09T18:21:03.156Z,53.77
2019-03-09T18:23:31.974Z,49.50
2019-03-09T18:26:00.638Z,48.63
2019-03-09T18:28:29.427Z,47.07
2019-03-09T18:30:58.072Z,53.73
2019-03-09T18:33:26.725Z,59.18
2019-03-09T18:35:55.396Z,52.40
2019-03-09T18:38:24.334Z,41.43
2019-03-09T18:40:54.443Z,54.70
2019-03-09T18:43:25.209Z,47.63
2019-03-09T18:45:53.974Z,54.97
2019-03-09T18:48:22.572Z,54.93
2019-03-09T18:50:51.261Z,45.87
2019-03-09T18:53:19.964Z,53.00
2019-03-09T18:55:58.605Z,58.33
2019-03-09T18:58:20.902Z,52.00
2019-03-09T19:00:49.654Z,42.17
2019-03-09T19:03:18.303Z,45.80
2019-03-09T19:05:47.040Z,54.07
2019-03-09T19:08:15.803Z,54.30
2019-03-09T19:10:44.430Z,47.63
2019-03-09T19:13:13.205Z,48.13
2019-03-09T19:15:41.893Z,39.10
2019-03-09T19:18:10.601Z,47.90
2019-03-09T19:20:39.223Z,47.33
2019-03-09T19:23:07.945Z,39.20
2019-03-09T19:25:36.584Z,33.37
2019-03-09T19:28:05.240Z,36.80
2019-03-09T19:30:33.987Z,37.30
2019-03-09T19:33:02.675Z,41.45
2019-03-09T19:35:31.259Z,37.70
2019-03-09T19:38:00.094Z,43.20
2019-03-09T19:40:28.946Z,43.90
2019-03-09T19:42:57.606Z,40.87
2019-03-09T19:45:26.344Z,41.23
2019-03-09T19:47:58.469Z,44.60
2019-03-09T19:50:28.329Z,45.10
2019-03-09T19:52:58.981Z,45.87
2019-03-09T19:55:27.548Z,45.97
2019-03-09T19:57:56.336Z,47.73
2019-03-09T20:00:24.970Z,42.97
2019-03-09T20:02:53.817Z,38.90
2019-03-09T20:05:23.693Z,47.17
2019-03-09T20:07:52.504Z,43.50
2019-03-09T20:10:31.864Z,45.93
2019-03-09T20:13:02.615Z,38.63
2019-03-09T20:15:31.558Z,46.00
2019-03-09T20:18:00.379Z,47.70
2019-03-09T20:20:29.179Z,33.53
2019-03-09T20:22:58.057Z,46.57
2019-03-09T20:25:29.028Z,38.23
2019-03-09T20:27:57.938Z,38.10
2019-03-09T20:30:26.946Z,32.50
2019-03-09T20:32:55.815Z,31.60
2019-03-09T20:35:24.486Z,35.03
2019-03-09T20:37:53.216Z,45.40
2019-03-09T20:40:21.996Z,34.97
2019-03-09T20:42:50.811Z,34.60
2019-03-09T20:45:20.599Z,42.63
2019-03-09T20:47:49.300Z,27.50
2019-03-09T20:50:19.193Z,37.83
2019-03-09T20:52:47.855Z,40.67
2019-03-09T20:55:16.568Z,37.23
2019-03-09T20:57:45.294Z,35.70
2019-03-09T21:00:21.233Z,39.03
2019-03-09T21:02:49.831Z,43.10
2019-03-09T21:05:18.484Z,44.67
2019-03-09T21:07:47.099Z,34.90
2019-03-09T21:10:19.502Z,37.53
2019-03-09T21:13:02.739Z,40.27
2019-03-09T21:15:31.411Z,37.43
2019-03-09T21:18:00.117Z,34.97
2019-03-09T21:20:28.770Z,36.07
2019-03-09T21:22:57.511Z,45.90
2019-03-09T21:25:26.248Z,41.77
2019-03-09T21:27:54.965Z,30.63
2019-03-09T21:30:23.687Z,42.60
2019-03-09T21:32:52.407Z,45.23
2019-03-09T21:35:21.114Z,49.47
2019-03-09T21:37:50.870Z,49.93
2019-03-09T21:40:19.569Z,48.70
2019-03-09T21:42:48.261Z,46.17
2019-03-09T21:45:17.156Z,40.90
2019-03-09T21:47:45.919Z,57.17
2019-03-09T21:50:18.073Z,43.87
2019-03-09T21:52:46.906Z,47.03
2019-03-09T21:55:16.419Z,42.10
2019-03-09T21:57:45.287Z,46.50
2019-03-09T22:00:18.068Z,44.37
2019-03-09T22:02:47.032Z,47.10
2019-03-09T22:05:15.921Z,43.83
2019-03-09T22:07:44.569Z,51.33
2019-03-09T22:10:14.013Z,43.60
2019-03-09T22:12:42.838Z,51.77
2019-03-09T22:15:16.184Z,53.33
2019-03-09T22:17:44.995Z,53.47
2019-03-09T22:20:14.699Z,58.73
2019-03-09T22:22:43.584Z,53.27
2019-03-09T22:25:13.281Z,53.53
2019-03-09T22:27:42.096Z,49.10
2019-03-09T22:30:15.158Z,45.03
2019-03-09T22:32:43.969Z,43.13
2019-03-09T22:35:13.705Z,51.57
2019-03-09T22:37:42.738Z,41.63
2019-03-09T22:40:14.007Z,59.23
2019-03-09T22:42:48.914Z,50.20
2019-03-09T22:45:17.640Z,50.30
2019-03-09T22:47:46.357Z,50.57
2019-03-09T22:50:18.988Z,55.10
2019-03-09T22:52:47.759Z,45.57
2019-03-09T22:55:16.683Z,53.47
2019-03-09T22:57:45.452Z,43.57
2019-03-09T23:00:25.267Z,50.30
2019-03-09T23:02:57.141Z,60.60
2019-03-09T23:05:25.463Z,52.83
2019-03-09T23:07:54.168Z,52.03
2019-03-09T23:10:26.820Z,61.03
2019-03-09T23:12:55.469Z,67.40
2019-03-09T23:15:24.131Z,52.07
2019-03-09T23:17:52.849Z,58.57
2019-03-09T23:20:21.467Z,46.00
2019-03-09T23:22:50.113Z,42.57
2019-03-09T23:25:18.827Z,52.13
2019-03-09T23:27:47.573Z,39.80
2019-03-09T23:30:23.327Z,49.77
2019-03-09T23:32:54.931Z,41.63
2019-03-09T23:35:23.588Z,47.07
2019-03-09T23:37:52.579Z,50.00
2019-03-09T23:40:23.077Z,50.53
2019-03-09T23:42:51.889Z,47.73
2019-03-09T23:45:22.928Z,45.00
2019-03-09T23:47:52.109Z,52.17
2019-03-09T23:50:21.038Z,58.07
2019-03-09T23:52:50.093Z,50.97
2019-03-09T23:55:22.621Z,47.70
2019-03-09T23:57:49.514Z,43.27
